Time;durP1;ratioP1;P1;durP2;ratioP2;P2;SDS_P1;SDS_P2;PMS_P1;PMS_P2;Temp;Humidity;BMP_temperature;BMP_pressure;BME280_temperature;BME280_humidity;BME280_pressure;Samples;Min_cycle;Max_cycle;Signal;HPM_P1;HPM_P2
2021/11/21 00:00:57;;;;;;;0.50;0.40;;;2.60;99.90;;;;;;4990675;28;20394;-69
2021/11/21 00:03:23;;;;;;;0.80;0.75;;;2.50;99.90;;;;;;4999897;28;20426;-69
2021/11/21 00:05:49;;;;;;;0.40;0.20;;;2.50;99.90;;;;;;5001740;28;20398;-70
2021/11/21 00:08:14;;;;;;;0.40;0.20;;;2.50;99.90;;;;;;5002430;28;20394;-69
2021/11/21 00:10:41;;;;;;;0.40;0.20;;;2.60;99.90;;;;;;5002207;28;20917;-70
2021/11/21 00:13:08;;;;;;;0.40;0.20;;;2.60;99.90;;;;;;5004449;28;20408;-68
2021/11/21 00:15:34;;;;;;;0.40;0.40;;;2.60;99.90;;;;;;4994319;28;20390;-67
2021/11/21 00:18:01;;;;;;;0.40;0.20;;;2.60;99.90;;;;;;4975454;28;20460;-69
2021/11/21 00:20:27;;;;;;;0.40;0.20;;;2.50;99.90;;;;;;4993827;28;20406;-68
2021/11/21 00:22:53;;;;;;;0.40;0.20;;;2.40;99.90;;;;;;4991758;28;20427;-68
2021/11/21 00:25:19;;;;;;;0.40;0.20;;;2.40;99.90;;;;;;4992927;28;20386;-68
2021/11/21 00:27:44;;;;;;;0.40;0.30;;;2.30;99.90;;;;;;4993800;28;20386;-68
2021/11/21 00:30:10;;;;;;;0.60;0.60;;;2.40;99.90;;;;;;4992011;28;20422;-68
2021/11/21 00:32:36;;;;;;;0.40;0.20;;;2.20;99.90;;;;;;4993325;28;20489;-68
2021/11/21 00:35:03;;;;;;;0.60;0.50;;;2.40;99.90;;;;;;4991041;28;20963;-69
2021/11/21 00:37:28;;;;;;;0.40;0.20;;;2.40;99.90;;;;;;4993415;28;20398;-68
2021/11/21 00:39:56;;;;;;;0.60;0.50;;;2.30;99.90;;;;;;4992944;28;20420;-70
2021/11/21 00:42:23;;;;;;;0.40;0.20;;;2.40;99.90;;;;;;4992988;28;20819;-69
2021/11/21 00:44:49;;;;;;;0.40;0.20;;;2.30;99.90;;;;;;4979172;28;20406;-68
2021/11/21 00:47:14;;;;;;;4.30;0.70;;;2.40;99.90;;;;;;4991754;28;20403;-68
2021/11/21 00:49:41;;;;;;;0.40;0.20;;;2.30;99.90;;;;;;4983372;28;20423;-68
2021/11/21 00:52:08;;;;;;;0.43;0.40;;;2.40;99.90;;;;;;4972895;28;20735;-69
2021/11/21 00:57:06;;;;;;;0.40;0.20;;;2.20;99.90;;;;;;4972588;28;20445;-69
2021/11/21 00:59:32;;;;;;;0.40;0.30;;;2.10;99.90;;;;;;4988079;28;20396;-68
2021/11/21 01:01:58;;;;;;;0.50;0.40;;;2.10;99.90;;;;;;4973379;28;20432;-68
2021/11/21 01:04:23;;;;;;;0.40;0.20;;;2.00;99.90;;;;;;4972558;28;21028;-68
2021/11/21 01:06:49;;;;;;;0.40;0.30;;;2.10;99.90;;;;;;4973257;28;20408;-68
2021/11/21 01:09:18;;;;;;;0.40;0.20;;;2.00;99.90;;;;;;4988038;28;20384;-68
2021/11/21 01:11:44;;;;;;;0.40;0.20;;;2.00;99.90;;;;;;4973349;28;20529;-68
2021/11/21 01:14:09;;;;;;;0.40;0.20;;;2.00;99.90;;;;;;4973114;28;20873;-70
2021/11/21 01:16:36;;;;;;;0.40;0.20;;;2.00;99.90;;;;;;4972801;28;20388;-68
2021/11/21 01:19:03;;;;;;;0.40;0.20;;;2.30;99.90;;;;;;4973270;28;20737;-68
2021/11/21 01:21:29;;;;;;;0.40;0.30;;;2.30;99.90;;;;;;4972020;28;20539;-68
2021/11/21 01:23:55;;;;;;;0.40;0.20;;;2.10;99.90;;;;;;4973267;28;20442;-68
2021/11/21 01:26:21;;;;;;;0.40;0.20;;;2.10;99.90;;;;;;4987303;28;20408;-68
2021/11/21 01:28:47;;;;;;;0.40;0.20;;;2.10;99.90;;;;;;4973219;28;20400;-68
2021/11/21 01:31:13;;;;;;;0.50;0.40;;;2.00;99.90;;;;;;4973488;28;20384;-68
2021/11/21 01:33:39;;;;;;;0.40;0.20;;;2.10;99.90;;;;;;4972218;28;20749;-68
2021/11/21 01:36:05;;;;;;;0.40;0.20;;;2.00;99.90;;;;;;4987702;28;20809;-68
2021/11/21 01:38:31;;;;;;;0.40;0.30;;;1.90;99.90;;;;;;4972501;28;20376;-69
2021/11/21 01:40:57;;;;;;;0.40;0.20;;;1.90;99.90;;;;;;4972722;28;20403;-68
2021/11/21 01:43:23;;;;;;;0.40;0.30;;;1.90;99.90;;;;;;4972814;28;20430;-68
2021/11/21 01:45:50;;;;;;;0.40;0.30;;;1.90;99.90;;;;;;4971930;28;20432;-68
2021/11/21 01:48:15;;;;;;;1.30;0.60;;;1.90;99.90;;;;;;4972796;28;20392;-68
2021/11/21 01:50:43;;;;;;;0.60;0.60;;;2.00;99.90;;;;;;4988473;28;20806;-68
2021/11/21 01:53:10;;;;;;;0.40;0.20;;;2.00;99.90;;;;;;4992692;28;20410;-68
2021/11/21 01:55:37;;;;;;;0.40;0.20;;;2.20;99.90;;;;;;4991818;28;20394;-68
2021/11/21 01:58:03;;;;;;;0.50;0.50;;;2.20;99.90;;;;;;4993176;28;20442;-68
2021/11/21 02:00:32;;;;;;;0.40;0.20;;;2.20;99.90;;;;;;4992130;28;20410;-68
2021/11/21 02:02:57;;;;;;;0.40;0.30;;;2.30;99.90;;;;;;4990973;28;20422;-68
2021/11/21 02:05:23;;;;;;;0.40;0.20;;;2.20;99.90;;;;;;4991852;28;21071;-68
2021/11/21 02:07:49;;;;;;;0.40;0.20;;;2.20;99.90;;;;;;4991810;28;20387;-70
2021/11/21 02:10:19;;;;;;;0.40;0.20;;;2.30;99.90;;;;;;4991247;28;20402;-68
2021/11/21 02:12:45;;;;;;;0.40;0.40;;;2.30;99.90;;;;;;5006571;28;20887;-68
2021/11/21 02:15:17;;;;;;;0.40;0.20;;;2.20;99.90;;;;;;4991133;28;20391;-68
2021/11/21 02:17:43;;;;;;;0.40;0.20;;;2.30;99.90;;;;;;4991047;28;20891;-68
2021/11/21 02:20:14;;;;;;;1.20;0.80;;;2.40;99.90;;;;;;4990895;28;20405;-68
2021/11/21 02:22:41;;;;;;;0.40;0.20;;;2.30;99.90;;;;;;4991453;28;20467;-69
2021/11/21 02:25:11;;;;;;;0.40;0.20;;;2.40;99.90;;;;;;4990709;28;20413;-71
2021/11/21 02:27:37;;;;;;;0.40;0.30;;;2.30;99.90;;;;;;4991303;28;20398;-69
2021/11/21 02:30:08;;;;;;;0.40;0.20;;;2.50;99.90;;;;;;4991173;28;20413;-69
2021/11/21 02:32:34;;;;;;;0.40;0.20;;;2.30;99.90;;;;;;4990654;28;20459;-69
2021/11/21 02:35:00;;;;;;;0.40;0.20;;;2.30;99.90;;;;;;4990717;28;20469;-68
2021/11/21 02:37:25;;;;;;;0.40;0.30;;;2.20;99.90;;;;;;4990459;28;20887;-69
2021/11/21 02:39:54;;;;;;;0.50;0.40;;;2.40;99.90;;;;;;4991473;28;20473;-68
2021/11/21 02:42:33;;;;;;;0.40;0.20;;;2.50;99.90;;;;;;4990376;28;20412;-70
2021/11/21 02:44:59;;;;;;;0.40;0.20;;;2.50;99.90;;;;;;4991251;28;20413;-68
2021/11/21 02:47:31;;;;;;;0.40;0.20;;;2.40;99.90;;;;;;4989943;28;20725;-69
2021/11/21 02:49:58;;;;;;;0.40;0.20;;;2.40;99.90;;;;;;4991098;28;20848;-68
2021/11/21 02:52:24;;;;;;;0.60;0.60;;;2.60;99.90;;;;;;4991129;28;20398;-69
2021/11/21 02:54:55;;;;;;;0.70;0.70;;;2.40;99.90;;;;;;4990122;28;20446;-69
2021/11/21 02:57:26;;;;;;;0.40;0.20;;;2.50;99.90;;;;;;4991855;28;20551;-68
2021/11/21 02:59:52;;;;;;;0.40;0.40;;;2.30;99.90;;;;;;5009576;28;20484;-69
2021/11/21 03:02:19;;;;;;;0.40;0.20;;;2.40;99.90;;;;;;4990801;28;20406;-69
2021/11/21 03:04:49;;;;;;;0.40;0.20;;;2.40;99.90;;;;;;4990286;28;20402;-69
2021/11/21 03:07:15;;;;;;;0.40;0.20;;;2.40;99.90;;;;;;4990326;28;20443;-69
2021/11/21 03:09:41;;;;;;;0.40;0.20;;;2.30;99.90;;;;;;4990653;28;20394;-70
2021/11/21 03:12:08;;;;;;;0.40;0.20;;;2.40;99.90;;;;;;4990533;28;20437;-69
2021/11/21 03:14:34;;;;;;;0.40;0.20;;;2.40;99.90;;;;;;4990033;28;20966;-70
2021/11/21 03:17:00;;;;;;;1.80;1.10;;;2.40;99.90;;;;;;4990495;28;20469;-69
2021/11/21 03:19:26;;;;;;;0.40;0.20;;;2.40;99.90;;;;;;4991031;28;20398;-69
2021/11/21 03:21:52;;;;;;;0.50;0.50;;;2.60;99.90;;;;;;4972299;28;20410;-70
2021/11/21 03:24:18;;;;;;;0.40;0.20;;;2.60;99.90;;;;;;4973827;28;20414;-69
2021/11/21 03:26:44;;;;;;;0.40;0.20;;;2.60;99.90;;;;;;4990755;28;20486;-69
2021/11/21 03:29:11;;;;;;;0.40;0.30;;;2.70;99.90;;;;;;4989411;28;20480;-69
2021/11/21 03:31:37;;;;;;;0.60;0.60;;;2.80;99.90;;;;;;4991133;28;20870;-69
2021/11/21 03:34:04;;;;;;;0.40;0.20;;;2.80;99.90;;;;;;4990660;28;20429;-70
2021/11/21 03:36:30;;;;;;;0.40;0.20;;;2.80;99.90;;;;;;4973564;28;20490;-70
2021/11/21 03:38:57;;;;;;;0.40;0.20;;;3.00;99.90;;;;;;4991011;28;20414;-69
2021/11/21 03:41:29;;;;;;;2.60;1.00;;;3.10;99.90;;;;;;4989494;28;20438;-70
2021/11/21 03:43:54;;;;;;;0.50;0.50;;;3.00;99.90;;;;;;4991271;28;20406;-71
2021/11/21 03:46:22;;;;;;;0.40;0.20;;;3.00;99.90;;;;;;4990887;28;20446;-70
2021/11/21 03:48:47;;;;;;;1.60;0.80;;;3.00;99.90;;;;;;4989429;28;20473;-70
2021/11/21 03:51:13;;;;;;;0.40;0.20;;;3.00;99.90;;;;;;4986455;28;20782;-73
2021/11/21 03:53:39;;;;;;;0.70;0.70;;;3.00;99.90;;;;;;4971524;28;20432;-71
2021/11/21 03:56:06;;;;;;;0.40;0.30;;;2.80;99.90;;;;;;4971258;28;20459;-71
2021/11/21 03:58:31;;;;;;;0.40;0.40;;;2.80;99.90;;;;;;4970304;28;20396;-71
2021/11/21 04:00:59;;;;;;;0.40;0.20;;;2.90;99.90;;;;;;4971270;28;20435;-70
2021/11/21 04:03:25;;;;;;;0.40;0.20;;;2.90;99.90;;;;;;4953738;28;20769;-72
2021/11/21 04:05:51;;;;;;;1.10;1.00;;;2.90;99.90;;;;;;4971071;28;20392;-70
2021/11/21 04:08:17;;;;;;;0.40;0.30;;;3.00;99.90;;;;;;4971513;28;20532;-72
2021/11/21 04:10:43;;;;;;;0.40;0.20;;;3.00;99.90;;;;;;4988480;28;20902;-70
2021/11/21 04:13:09;;;;;;;1.80;1.10;;;3.00;99.90;;;;;;4975131;28;20392;-70
2021/11/21 04:15:35;;;;;;;0.40;0.20;;;2.90;99.90;;;;;;4974477;28;20928;-72
2021/11/21 04:18:01;;;;;;;0.70;0.70;;;2.90;99.90;;;;;;4974670;28;20392;-70
2021/11/21 04:20:28;;;;;;;0.40;0.20;;;2.90;99.90;;;;;;4974289;28;20956;-71
2021/11/21 04:22:53;;;;;;;0.40;0.20;;;2.90;99.90;;;;;;4973874;28;20510;-70
2021/11/21 04:25:19;;;;;;;0.40;0.20;;;3.00;99.90;;;;;;4974304;28;20901;-70
2021/11/21 04:27:45;;;;;;;0.40;0.20;;;2.90;99.90;;;;;;4974513;28;20387;-70
2021/11/21 04:30:14;;;;;;;0.40;0.20;;;2.90;99.90;;;;;;4974589;28;20380;-71
2021/11/21 04:32:41;;;;;;;0.40;0.20;;;2.90;99.90;;;;;;4974318;28;20415;-70
2021/11/21 04:35:12;;;;;;;0.40;0.20;;;2.90;99.90;;;;;;4973650;28;20388;-70
2021/11/21 04:37:40;;;;;;;0.40;0.20;;;2.90;99.90;;;;;;4957690;28;20782;-70
2021/11/21 04:40:07;;;;;;;0.40;0.20;;;2.90;99.90;;;;;;4973424;28;20406;-71
2021/11/21 04:42:33;;;;;;;0.40;0.20;;;2.90;99.90;;;;;;4974077;28;20415;-70
2021/11/21 04:44:59;;;;;;;0.50;0.40;;;3.00;99.90;;;;;;4974162;28;20900;-70
2021/11/21 04:47:25;;;;;;;0.40;0.20;;;2.90;99.90;;;;;;4973042;28;20388;-70
2021/11/21 04:49:52;;;;;;;0.40;0.20;;;2.90;99.90;;;;;;4989043;28;20412;-70
2021/11/21 04:52:18;;;;;;;1.20;1.10;;;2.80;99.90;;;;;;4973566;28;20857;-71
2021/11/21 04:54:44;;;;;;;0.80;0.80;;;2.90;99.90;;;;;;4974037;28;20384;-69
2021/11/21 04:57:10;;;;;;;0.40;0.20;;;2.90;99.90;;;;;;4974242;28;20392;-70
2021/11/21 04:59:36;;;;;;;0.40;0.20;;;2.90;99.90;;;;;;4992740;28;20415;-70
2021/11/21 05:02:02;;;;;;;0.70;0.70;;;3.00;99.90;;;;;;4993950;28;20546;-70
2021/11/21 05:04:28;;;;;;;0.40;0.40;;;3.10;99.90;;;;;;4992371;28;20910;-70
2021/11/21 05:06:54;;;;;;;0.40;0.20;;;3.00;99.90;;;;;;4993517;28;20394;-70
2021/11/21 05:09:20;;;;;;;0.40;0.20;;;3.20;99.90;;;;;;4976346;28;20447;-69
2021/11/21 05:11:46;;;;;;;1.60;1.20;;;3.20;99.90;;;;;;4993089;28;20394;-70
2021/11/21 05:14:15;;;;;;;0.40;0.20;;;3.20;99.90;;;;;;4993272;28;20394;-69
2021/11/21 05:16:40;;;;;;;0.40;0.20;;;3.30;99.90;;;;;;4992718;28;20393;-70
2021/11/21 05:19:06;;;;;;;1.20;0.60;;;3.50;99.90;;;;;;4993148;28;20390;-70
2021/11/21 05:21:32;;;;;;;0.40;0.20;;;3.30;99.90;;;;;;4992594;28;20402;-70
2021/11/21 05:23:58;;;;;;;0.40;0.20;;;3.30;99.90;;;;;;4992817;28;20410;-70
2021/11/21 05:26:24;;;;;;;0.40;0.20;;;3.20;99.90;;;;;;4992896;28;20923;-70
2021/11/21 05:28:50;;;;;;;1.50;0.90;;;3.30;99.90;;;;;;4992380;28;20466;-70
2021/11/21 05:31:16;;;;;;;0.40;0.20;;;3.10;99.90;;;;;;4992946;28;20451;-69
2021/11/21 05:33:42;;;;;;;0.40;0.20;;;3.10;99.90;;;;;;4991902;28;20402;-72
2021/11/21 05:36:08;;;;;;;0.40;0.20;;;3.10;99.90;;;;;;4993291;28;20486;-71
2021/11/21 05:38:34;;;;;;;0.40;0.20;;;3.20;99.90;;;;;;4993033;28;20417;-69
2021/11/21 05:41:00;;;;;;;1.10;1.00;;;3.20;99.90;;;;;;4975001;28;20419;-70
2021/11/21 05:43:26;;;;;;;0.40;0.30;;;3.20;99.90;;;;;;4991987;28;20418;-69
2021/11/21 05:45:52;;;;;;;0.50;0.40;;;3.20;99.90;;;;;;4974781;28;20816;-70
2021/11/21 05:48:17;;;;;;;0.50;0.50;;;3.40;99.90;;;;;;4992187;28;20401;-70
2021/11/21 05:50:43;;;;;;;0.40;0.20;;;3.30;99.90;;;;;;5009911;28;20417;-70
2021/11/21 05:53:09;;;;;;;1.30;1.00;;;3.30;99.90;;;;;;5011395;28;20798;-69
2021/11/21 05:55:35;;;;;;;0.40;0.20;;;3.20;99.90;;;;;;5012192;28;20457;-70
2021/11/21 05:58:00;;;;;;;0.90;0.80;;;3.30;99.90;;;;;;5005163;28;20736;-70
2021/11/21 06:00:28;;;;;;;0.40;0.20;;;3.20;99.90;;;;;;4973864;28;20788;-70
2021/11/21 06:02:54;;;;;;;0.40;0.20;;;3.10;99.90;;;;;;4992333;28;20949;-69
2021/11/21 06:05:21;;;;;;;0.40;0.30;;;3.00;99.90;;;;;;4991857;28;20863;-70
2021/11/21 06:07:47;;;;;;;0.40;0.20;;;3.30;99.90;;;;;;4992183;28;20398;-70
2021/11/21 06:10:14;;;;;;;1.00;0.55;;;3.30;99.90;;;;;;4974843;28;20441;-70
2021/11/21 06:12:40;;;;;;;0.40;0.20;;;3.30;99.90;;;;;;4974611;28;20399;-70
2021/11/21 06:15:08;;;;;;;0.40;0.20;;;3.20;99.90;;;;;;4974765;28;20452;-70
2021/11/21 06:17:34;;;;;;;0.50;0.50;;;3.40;99.90;;;;;;4991090;28;20394;-70
2021/11/21 06:20:00;;;;;;;0.40;0.30;;;3.20;99.90;;;;;;4974576;28;20907;-70
2021/11/21 06:22:25;;;;;;;0.40;0.20;;;3.10;99.90;;;;;;4991405;28;20398;-70
2021/11/21 06:24:51;;;;;;;0.40;0.20;;;3.20;99.90;;;;;;4992141;28;20852;-70
2021/11/21 06:27:17;;;;;;;0.40;0.30;;;3.30;99.90;;;;;;4992097;28;20379;-69
2021/11/21 06:29:43;;;;;;;0.60;0.60;;;3.00;99.90;;;;;;4991187;28;20843;-70
2021/11/21 06:32:09;;;;;;;0.40;0.20;;;3.10;99.90;;;;;;4990944;28;20395;-70
2021/11/21 06:34:35;;;;;;;0.40;0.22;;;3.10;99.90;;;;;;4991523;28;20800;-71
2021/11/21 06:37:02;;;;;;;0.80;0.80;;;3.10;99.90;;;;;;4991693;28;20386;-69
2021/11/21 06:39:28;;;;;;;0.40;0.30;;;3.30;99.90;;;;;;4991700;28;20386;-70
2021/11/21 06:41:54;;;;;;;0.40;0.20;;;3.30;99.90;;;;;;4991403;28;20461;-70
2021/11/21 06:44:20;;;;;;;0.40;0.20;;;3.10;99.90;;;;;;4991875;28;20418;-70
2021/11/21 06:46:47;;;;;;;0.40;0.20;;;3.20;99.90;;;;;;4990969;28;20876;-70
2021/11/21 06:49:13;;;;;;;0.40;0.20;;;3.30;99.90;;;;;;4969212;28;20770;-70
2021/11/21 06:51:42;;;;;;;0.40;0.20;;;3.30;99.90;;;;;;4972570;28;20420;-70
2021/11/21 06:54:09;;;;;;;1.00;0.73;;;3.20;99.90;;;;;;4971681;28;20470;-70
2021/11/21 06:56:36;;;;;;;0.40;0.20;;;3.20;99.90;;;;;;4972538;28;20893;-70
2021/11/21 06:59:03;;;;;;;0.60;0.50;;;3.30;99.90;;;;;;4986966;28;20402;-70
2021/11/21 07:01:28;;;;;;;0.40;0.20;;;3.20;99.90;;;;;;4992084;28;20859;-70
2021/11/21 07:03:54;;;;;;;0.70;0.70;;;3.30;99.90;;;;;;4990730;28;20418;-70
2021/11/21 07:06:39;;;;;;;0.40;0.30;;;3.10;99.90;;;;;;4990871;28;20391;-70
2021/11/21 07:09:16;;;;;;;0.68;0.65;;;3.20;99.90;;;;;;4991045;28;20567;-71
2021/11/21 07:11:43;;;;;;;0.50;0.40;;;3.20;99.90;;;;;;4991775;28;20386;-70
2021/11/21 07:14:11;;;;;;;0.40;0.30;;;3.40;99.90;;;;;;4990563;28;20394;-70
2021/11/21 07:16:42;;;;;;;0.60;0.50;;;3.30;99.90;;;;;;4991379;28;20388;-70
2021/11/21 07:19:09;;;;;;;0.40;0.20;;;3.20;99.90;;;;;;4991276;28;20420;-70
2021/11/21 07:21:35;;;;;;;0.40;0.20;;;3.30;99.90;;;;;;4990703;28;20390;-70
2021/11/21 07:24:01;;;;;;;0.85;0.85;;;3.40;99.90;;;;;;4991397;28;20465;-70
2021/11/21 07:26:26;;;;;;;0.40;0.40;;;3.50;99.90;;;;;;4990567;28;20399;-70
2021/11/21 07:28:52;;;;;;;0.40;0.30;;;3.50;99.90;;;;;;4991198;28;20437;-70
2021/11/21 07:31:19;;;;;;;0.40;0.20;;;3.50;99.90;;;;;;4991265;28;20449;-69
2021/11/21 07:33:45;;;;;;;1.50;0.85;;;3.60;99.90;;;;;;4990383;28;20393;-70
2021/11/21 07:36:11;;;;;;;0.40;0.20;;;3.60;99.90;;;;;;4991330;28;20394;-69
2021/11/21 07:38:36;;;;;;;0.40;0.20;;;3.70;99.90;;;;;;4972722;28;20414;-70
2021/11/21 07:41:03;;;;;;;0.40;0.40;;;3.70;99.90;;;;;;4991118;28;20394;-70
2021/11/21 07:43:30;;;;;;;0.40;0.20;;;3.70;99.90;;;;;;4990573;28;20843;-71
2021/11/21 07:45:58;;;;;;;0.40;0.20;;;3.70;99.90;;;;;;4981007;28;20396;-69
2021/11/21 07:48:24;;;;;;;0.70;0.50;;;3.60;99.90;;;;;;4984873;28;20445;-70
2021/11/21 07:50:50;;;;;;;0.40;0.40;;;3.60;99.90;;;;;;4981982;28;20409;-70
2021/11/21 07:53:16;;;;;;;0.80;0.80;;;3.70;99.90;;;;;;4980598;28;20386;-70
2021/11/21 07:55:42;;;;;;;1.20;1.10;;;3.80;99.90;;;;;;4969611;28;20790;-70
2021/11/21 07:58:08;;;;;;;0.40;0.20;;;3.90;99.90;;;;;;4984313;28;20452;-69
2021/11/21 08:00:33;;;;;;;0.40;0.40;;;3.90;99.90;;;;;;4983593;28;20412;-69
2021/11/21 08:03:00;;;;;;;0.70;0.70;;;3.90;99.90;;;;;;4985540;28;20879;-70
2021/11/21 08:05:27;;;;;;;0.50;0.50;;;3.70;99.90;;;;;;4966169;28;20436;-70
2021/11/21 08:07:52;;;;;;;0.40;0.20;;;3.70;99.90;;;;;;4982725;28;20380;-69
2021/11/21 08:10:19;;;;;;;0.40;0.20;;;3.70;99.90;;;;;;4984947;28;20627;-68
2021/11/21 08:12:44;;;;;;;0.70;0.70;;;3.80;99.90;;;;;;4984673;28;20434;-69
2021/11/21 08:15:10;;;;;;;0.40;0.30;;;3.80;99.90;;;;;;4985169;28;20415;-69
2021/11/21 08:17:39;;;;;;;0.40;0.20;;;3.90;99.90;;;;;;4983175;28;20458;-69
2021/11/21 08:20:05;;;;;;;0.40;0.20;;;3.70;99.90;;;;;;4974311;28;20407;-68
2021/11/21 08:22:31;;;;;;;0.40;0.20;;;3.90;99.90;;;;;;4974911;28;20400;-68
2021/11/21 08:24:57;;;;;;;0.40;0.30;;;3.70;99.90;;;;;;4974946;28;20719;-70
2021/11/21 08:27:26;;;;;;;1.60;0.80;;;3.80;99.90;;;;;;4974995;28;20475;-68
2021/11/21 08:29:52;;;;;;;13.10;1.10;;;3.70;99.90;;;;;;4974820;28;20384;-68
2021/11/21 08:32:19;;;;;;;0.60;0.60;;;3.60;99.90;;;;;;4974117;28;20388;-68
2021/11/21 08:34:45;;;;;;;0.40;0.20;;;3.70;99.90;;;;;;4974690;28;20461;-69
2021/11/21 08:37:11;;;;;;;1.40;0.98;;;3.80;99.90;;;;;;4974389;28;20388;-69
2021/11/21 08:39:37;;;;;;;2.10;1.20;;;3.80;99.90;;;;;;4957486;28;20393;-69
2021/11/21 08:42:04;;;;;;;0.90;0.60;;;3.90;99.90;;;;;;4974849;28;20840;-69
2021/11/21 08:44:30;;;;;;;0.40;0.40;;;3.90;99.90;;;;;;4973871;28;20416;-69
2021/11/21 08:46:56;;;;;;;0.40;0.20;;;3.90;99.90;;;;;;4974693;28;20401;-69
2021/11/21 08:49:22;;;;;;;0.40;0.20;;;4.00;99.90;;;;;;4980058;28;20414;-69
2021/11/21 08:51:48;;;;;;;0.40;0.20;;;3.90;99.90;;;;;;4994442;28;20395;-68
2021/11/21 08:54:16;;;;;;;0.50;0.50;;;4.00;99.90;;;;;;4994155;28;20390;-69
2021/11/21 08:56:45;;;;;;;0.40;0.20;;;3.90;99.90;;;;;;4991702;28;20478;-69
2021/11/21 08:59:11;;;;;;;0.40;0.20;;;4.10;99.90;;;;;;5010620;28;20391;-69
2021/11/21 09:01:38;;;;;;;0.40;0.30;;;4.10;99.90;;;;;;5006470;28;20392;-69
2021/11/21 09:04:03;;;;;;;0.40;0.30;;;4.00;99.90;;;;;;4999377;28;20887;-69
2021/11/21 09:06:29;;;;;;;0.70;0.70;;;4.00;99.90;;;;;;5009192;28;20397;-69
2021/11/21 09:08:56;;;;;;;0.40;0.40;;;4.00;99.90;;;;;;4999303;28;20854;-69
2021/11/21 09:11:22;;;;;;;0.40;0.20;;;4.00;99.90;;;;;;5003960;28;20378;-69
2021/11/21 09:13:48;;;;;;;0.40;0.30;;;4.00;99.90;;;;;;5005660;28;20746;-69
2021/11/21 09:16:14;;;;;;;1.02;0.93;;;3.90;99.90;;;;;;4996972;28;20383;-69
2021/11/21 09:18:39;;;;;;;0.45;0.45;;;3.80;99.90;;;;;;5006096;28;20392;-70
2021/11/21 09:21:05;;;;;;;0.50;0.50;;;3.80;99.90;;;;;;5003932;28;20398;-69
2021/11/21 09:23:31;;;;;;;0.40;0.30;;;3.80;99.90;;;;;;5005966;28;20473;-69
2021/11/21 09:25:57;;;;;;;0.40;0.20;;;3.90;99.90;;;;;;4995826;28;20863;-69
2021/11/21 09:28:25;;;;;;;1.60;0.60;;;3.90;99.90;;;;;;5009402;28;20383;-69
2021/11/21 09:30:53;;;;;;;0.40;0.20;;;4.10;99.90;;;;;;4999762;28;20482;-69
2021/11/21 09:33:19;;;;;;;0.60;0.60;;;4.00;99.90;;;;;;5001371;28;20527;-69
2021/11/21 09:35:45;;;;;;;0.63;0.52;;;3.90;99.90;;;;;;5007087;28;20380;-69
2021/11/21 09:38:12;;;;;;;0.65;0.65;;;4.10;99.90;;;;;;4998014;28;20942;-69
2021/11/21 09:40:38;;;;;;;0.40;0.20;;;4.30;99.90;;;;;;5009740;28;20385;-69
2021/11/21 09:43:04;;;;;;;0.50;0.50;;;4.30;99.90;;;;;;4993945;28;20426;-69
2021/11/21 09:45:30;;;;;;;0.90;0.80;;;4.30;99.90;;;;;;4994635;28;20390;-69
2021/11/21 09:48:00;;;;;;;0.40;0.20;;;4.20;99.90;;;;;;5005013;28;20794;-69
2021/11/21 09:50:28;;;;;;;0.80;0.60;;;4.20;99.90;;;;;;5003725;28;20945;-69
2021/11/21 09:52:54;;;;;;;0.40;0.20;;;4.20;99.90;;;;;;4998196;28;20581;-69
2021/11/21 09:55:21;;;;;;;0.40;0.20;;;4.20;99.90;;;;;;4996196;28;20481;-69
2021/11/21 09:57:47;;;;;;;0.40;0.20;;;4.30;99.90;;;;;;4995326;28;20393;-69
2021/11/21 10:00:16;;;;;;;0.50;0.50;;;4.30;99.90;;;;;;4999146;28;20813;-69
2021/11/21 10:02:45;;;;;;;1.50;0.77;;;4.40;99.90;;;;;;4998136;28;20414;-68
2021/11/21 10:05:22;;;;;;;0.40;0.40;;;4.50;99.90;;;;;;4993127;28;20402;-69
2021/11/21 10:07:48;;;;;;;0.40;0.20;;;4.30;99.90;;;;;;4999661;28;20393;-69
2021/11/21 10:10:17;;;;;;;1.20;1.10;;;4.20;99.90;;;;;;5004657;28;20379;-69
2021/11/21 10:12:43;;;;;;;0.50;0.50;;;4.20;99.90;;;;;;4992124;28;20395;-69
2021/11/21 10:15:17;;;;;;;0.80;0.47;;;4.20;99.90;;;;;;4991514;28;20801;-70
2021/11/21 10:17:47;;;;;;;0.40;0.20;;;3.90;99.90;;;;;;4997882;28;20401;-69
2021/11/21 10:20:24;;;;;;;0.70;0.60;;;4.00;99.90;;;;;;4968988;28;20887;-69
2021/11/21 10:22:52;;;;;;;0.40;0.20;;;3.70;99.90;;;;;;4988823;28;20795;-70
2021/11/21 10:25:34;;;;;;;0.40;0.40;;;3.70;99.90;;;;;;5009754;28;20815;-68
2021/11/21 10:28:12;;;;;;;0.90;0.70;;;3.90;99.90;;;;;;4996967;28;20393;-69
2021/11/21 10:31:18;;;;;;;0.40;0.20;;;3.90;99.90;;;;;;5001058;28;20384;-68
2021/11/21 10:33:50;;;;;;;0.40;0.30;;;3.70;99.90;;;;;;4913365;29;20409;-69
2021/11/21 10:36:25;;;;;;;1.00;0.60;;;3.80;99.90;;;;;;4986703;28;20927;-68
2021/11/21 10:38:53;;;;;;;0.40;0.20;;;3.90;99.90;;;;;;4981738;28;20790;-68
2021/11/21 10:41:22;;;;;;;0.40;0.20;;;3.70;99.90;;;;;;4969504;28;20872;-68
2021/11/21 10:44:10;;;;;;;0.70;0.40;;;3.70;99.90;;;;;;4979141;28;20418;-69
2021/11/21 10:46:42;;;;;;;0.40;0.32;;;3.80;99.90;;;;;;4977933;28;20395;-69
2021/11/21 10:49:27;;;;;;;0.40;0.20;;;3.90;99.90;;;;;;4980599;28;20413;-69
2021/11/21 10:52:11;;;;;;;0.40;0.20;;;3.70;99.90;;;;;;4984768;28;20417;-69
2021/11/21 10:54:45;;;;;;;1.40;1.30;;;3.80;99.90;;;;;;4985250;28;20970;-70
2021/11/21 10:57:18;;;;;;;0.40;0.20;;;3.70;99.90;;;;;;4985573;28;20401;-69
2021/11/21 10:59:55;;;;;;;0.40;0.20;;;3.60;99.90;;;;;;4986405;28;20458;-69
2021/11/21 11:02:32;;;;;;;0.80;0.70;;;3.60;99.90;;;;;;4985464;28;21485;-69
2021/11/21 11:05:04;;;;;;;0.85;0.55;;;3.60;99.90;;;;;;4987619;28;20701;-69
2021/11/21 11:07:32;;;;;;;0.40;0.20;;;3.80;99.90;;;;;;4984168;28;20798;-67
2021/11/21 11:09:58;;;;;;;1.40;0.80;;;3.80;99.90;;;;;;4985689;28;20963;-67
2021/11/21 11:12:25;;;;;;;0.40;0.30;;;4.00;99.90;;;;;;4986730;28;20403;-70
2021/11/21 11:14:53;;;;;;;0.70;0.70;;;3.70;99.90;;;;;;4969288;28;21655;-68
2021/11/21 11:17:19;;;;;;;0.40;0.20;;;3.80;99.90;;;;;;4984614;28;20682;-69
2021/11/21 11:19:46;;;;;;;0.50;0.50;;;3.80;99.90;;;;;;4984600;28;20527;-71
2021/11/21 11:22:12;;;;;;;0.40;0.40;;;3.90;99.90;;;;;;4985595;28;20405;-70
2021/11/21 11:24:44;;;;;;;1.10;0.80;;;4.00;99.90;;;;;;4986611;28;20547;-70
2021/11/21 11:27:38;;;;;;;1.40;0.95;;;4.00;99.90;;;;;;4984049;28;20582;-70
2021/11/21 11:30:05;;;;;;;0.40;0.20;;;4.00;99.90;;;;;;4986166;28;20445;-71
2021/11/21 11:32:37;;;;;;;0.50;0.50;;;3.90;99.90;;;;;;4985735;28;20886;-70
2021/11/21 11:35:24;;;;;;;0.40;0.35;;;4.10;99.90;;;;;;4984106;28;20835;-69
2021/11/21 11:37:53;;;;;;;0.40;0.30;;;4.00;99.90;;;;;;4948912;28;20448;-70
2021/11/21 11:40:27;;;;;;;0.70;0.70;;;3.90;99.90;;;;;;4985986;28;20426;-70
2021/11/21 11:42:55;;;;;;;2.70;0.70;;;3.80;99.90;;;;;;4986617;28;20433;-70
2021/11/21 11:45:42;;;;;;;0.40;0.20;;;3.80;99.90;;;;;;4970113;28;20424;-70
2021/11/21 11:48:35;;;;;;;0.70;0.52;;;3.90;99.90;;;;;;4966217;28;20417;-68
2021/11/21 11:51:27;;;;;;;0.40;0.30;;;3.80;99.90;;;;;;4987486;28;20485;-70
2021/11/21 11:53:55;;;;;;;1.50;1.10;;;4.00;99.90;;;;;;4988287;28;20404;-70
2021/11/21 11:56:24;;;;;;;0.40;0.20;;;3.90;99.90;;;;;;4985720;28;20951;-69
2021/11/21 11:58:57;;;;;;;0.40;0.20;;;3.90;99.90;;;;;;4986039;28;20412;-70
2021/11/21 12:01:32;;;;;;;1.90;0.60;;;3.90;99.90;;;;;;4987340;28;20403;-68
2021/11/21 12:04:02;;;;;;;0.60;0.40;;;4.00;99.90;;;;;;4988249;28;20883;-69
2021/11/21 12:06:42;;;;;;;0.40;0.20;;;3.70;99.90;;;;;;4991624;28;20453;-68
2021/11/21 12:09:22;;;;;;;0.50;0.50;;;3.70;99.90;;;;;;4990226;28;20426;-68
2021/11/21 12:11:58;;;;;;;0.40;0.20;;;3.90;99.90;;;;;;4989240;28;20623;-68
2021/11/21 12:14:25;;;;;;;0.50;0.50;;;3.90;99.90;;;;;;4989759;28;20442;-68
2021/11/21 12:16:59;;;;;;;0.40;0.20;;;4.00;99.90;;;;;;4989825;28;20485;-69
2021/11/21 12:19:41;;;;;;;0.40;0.20;;;3.80;99.90;;;;;;4952440;28;20431;-71
2021/11/21 12:22:29;;;;;;;0.40;0.40;;;3.80;99.90;;;;;;4979722;28;20395;-70
2021/11/21 12:24:58;;;;;;;0.40;0.20;;;3.90;99.90;;;;;;4990249;28;20493;-70
2021/11/21 12:27:30;;;;;;;0.40;0.20;;;3.90;99.90;;;;;;4989112;28;20888;-70
2021/11/21 12:30:11;;;;;;;0.50;0.40;;;3.90;99.90;;;;;;4989708;28;20387;-70
2021/11/21 12:32:57;;;;;;;0.47;0.47;;;3.90;99.90;;;;;;4993084;28;20457;-70
2021/11/21 12:35:40;;;;;;;0.40;0.30;;;3.70;99.90;;;;;;4992690;28;20433;-71
2021/11/21 12:38:06;;;;;;;0.40;0.20;;;3.80;99.90;;;;;;4993188;28;20395;-70
2021/11/21 12:40:44;;;;;;;2.90;1.45;;;4.00;99.90;;;;;;4992905;28;20434;-70
2021/11/21 12:43:15;;;;;;;0.63;0.38;;;4.00;99.90;;;;;;4993618;28;20407;-70
2021/11/21 12:45:43;;;;;;;0.40;0.20;;;4.10;99.90;;;;;;4970859;28;20445;-70
2021/11/21 12:48:10;;;;;;;0.40;0.20;;;4.10;99.90;;;;;;4993583;28;20390;-71
2021/11/21 12:50:40;;;;;;;0.40;0.20;;;4.10;99.90;;;;;;4976362;28;20415;-71
2021/11/21 12:53:14;;;;;;;0.50;0.50;;;3.90;99.90;;;;;;4973447;28;20404;-70
2021/11/21 12:55:43;;;;;;;0.40;0.30;;;4.00;99.90;;;;;;4972612;28;20452;-70
2021/11/21 12:58:23;;;;;;;0.90;0.90;;;4.00;99.90;;;;;;4982090;28;20430;-70
2021/11/21 13:00:51;;;;;;;0.40;0.25;;;3.90;99.90;;;;;;4990511;28;20469;-70
2021/11/21 13:03:20;;;;;;;0.80;0.80;;;4.00;99.90;;;;;;4973925;28;20413;-70
2021/11/21 13:05:54;;;;;;;0.80;0.70;;;4.10;99.90;;;;;;4972257;28;20407;-70